sensor_id;sensor_type;location;lat;lon;timestamp;pressure;altitude;pressure_sealevel;temperature;humidity
66547;BME280;53400;50.364;14.874;2023-06-14T00:01:02;98509.53;;;11.99;84.52
66547;BME280;53400;50.364;14.874;2023-06-14T00:03:42;98506.28;;;11.97;85.10
66547;BME280;53400;50.364;14.874;2023-06-14T00:06:08;98506.94;;;11.82;85.97
66547;BME280;53400;50.364;14.874;2023-06-14T00:08:35;98505.75;;;11.68;87.20
66547;BME280;53400;50.364;14.874;2023-06-14T00:11:03;98509.28;;;11.46;87.88
66547;BME280;53400;50.364;14.874;2023-06-14T00:13:29;98509.06;;;11.48;87.15
66547;BME280;53400;50.364;14.874;2023-06-14T00:15:55;98506.16;;;11.55;87.29
66547;BME280;53400;50.364;14.874;2023-06-14T00:18:22;98506.91;;;11.50;87.55
66547;BME280;53400;50.364;14.874;2023-06-14T00:20:50;98503.19;;;11.51;87.03
66547;BME280;53400;50.364;14.874;2023-06-14T00:23:17;98503.22;;;11.56;86.50
66547;BME280;53400;50.364;14.874;2023-06-14T00:25:44;98504.78;;;11.52;86.71
66547;BME280;53400;50.364;14.874;2023-06-14T00:28:12;98506.25;;;11.65;85.58
66547;BME280;53400;50.364;14.874;2023-06-14T00:30:39;98504.34;;;11.60;85.57
66547;BME280;53400;50.364;14.874;2023-06-14T00:33:05;98506.88;;;11.72;85.12
66547;BME280;53400;50.364;14.874;2023-06-14T00:35:31;98506.25;;;11.65;85.70
66547;BME280;53400;50.364;14.874;2023-06-14T00:37:57;98496.59;;;11.64;85.81
66547;BME280;53400;50.364;14.874;2023-06-14T00:40:24;98504.50;;;11.48;86.21
66547;BME280;53400;50.364;14.874;2023-06-14T00:42:51;98500.34;;;11.36;87.49
66547;BME280;53400;50.364;14.874;2023-06-14T00:45:19;98499.94;;;11.22;87.63
66547;BME280;53400;50.364;14.874;2023-06-14T00:47:46;98508.13;;;11.37;86.95
66547;BME280;53400;50.364;14.874;2023-06-14T00:50:12;98504.06;;;11.35;86.29
66547;BME280;53400;50.364;14.874;2023-06-14T00:52:40;98499.78;;;11.34;86.44
66547;BME280;53400;50.364;14.874;2023-06-14T00:55:08;98506.56;;;11.14;88.05
66547;BME280;53400;50.364;14.874;2023-06-14T00:57:34;98496.81;;;11.30;86.56
66547;BME280;53400;50.364;14.874;2023-06-14T01:00:04;98499.56;;;11.13;87.59
66547;BME280;53400;50.364;14.874;2023-06-14T01:02:36;98499.25;;;11.10;88.48
66547;BME280;53400;50.364;14.874;2023-06-14T01:05:03;98505.06;;;11.01;89.50
66547;BME280;53400;50.364;14.874;2023-06-14T01:07:43;98504.72;;;10.93;89.22
66547;BME280;53400;50.364;14.874;2023-06-14T01:10:24;98507.13;;;10.72;90.35
66547;BME280;53400;50.364;14.874;2023-06-14T01:12:58;98506.31;;;10.50;92.30
66547;BME280;53400;50.364;14.874;2023-06-14T01:15:26;98513.59;;;10.54;91.77
66547;BME280;53400;50.364;14.874;2023-06-14T01:17:55;98507.44;;;10.54;91.96
66547;BME280;53400;50.364;14.874;2023-06-14T01:20:28;98510.53;;;10.68;91.47
66547;BME280;53400;50.364;14.874;2023-06-14T01:22:56;98517.16;;;10.43;92.81
66547;BME280;53400;50.364;14.874;2023-06-14T01:25:23;98520.81;;;10.54;91.54
66547;BME280;53400;50.364;14.874;2023-06-14T01:27:53;98519.34;;;10.63;91.41
66547;BME280;53400;50.364;14.874;2023-06-14T01:30:21;98514.38;;;10.55;92.03
66547;BME280;53400;50.364;14.874;2023-06-14T01:32:49;98520.03;;;10.75;91.28
66547;BME280;53400;50.364;14.874;2023-06-14T01:35:16;98514.84;;;10.91;89.13
66547;BME280;53400;50.364;14.874;2023-06-14T01:37:43;98523.59;;;10.42;92.62
66547;BME280;53400;50.364;14.874;2023-06-14T01:40:12;98522.44;;;10.77;91.47
66547;BME280;53400;50.364;14.874;2023-06-14T01:42:41;98519.63;;;10.67;91.97
66547;BME280;53400;50.364;14.874;2023-06-14T01:45:09;98519.50;;;10.56;93.07
66547;BME280;53400;50.364;14.874;2023-06-14T01:47:38;98526.09;;;10.49;93.91
66547;BME280;53400;50.364;14.874;2023-06-14T01:50:05;98521.91;;;10.36;93.94
66547;BME280;53400;50.364;14.874;2023-06-14T01:52:32;98516.84;;;10.56;93.94
66547;BME280;53400;50.364;14.874;2023-06-14T01:54:58;98525.25;;;10.65;93.11
66547;BME280;53400;50.364;14.874;2023-06-14T01:57:29;98528.94;;;10.59;94.16
66547;BME280;53400;50.364;14.874;2023-06-14T01:59:55;98524.16;;;10.44;95.89
66547;BME280;53400;50.364;14.874;2023-06-14T02:02:22;98525.66;;;10.35;97.09
66547;BME280;53400;50.364;14.874;2023-06-14T02:04:48;98521.22;;;10.46;96.59
66547;BME280;53400;50.364;14.874;2023-06-14T02:07:15;98520.41;;;10.62;95.71
66547;BME280;53400;50.364;14.874;2023-06-14T02:09:41;98526.41;;;10.52;96.65
66547;BME280;53400;50.364;14.874;2023-06-14T02:12:08;98518.44;;;10.57;95.76
66547;BME280;53400;50.364;14.874;2023-06-14T02:14:37;98519.41;;;10.68;95.26
66547;BME280;53400;50.364;14.874;2023-06-14T02:17:04;98522.59;;;10.65;95.30
66547;BME280;53400;50.364;14.874;2023-06-14T02:19:32;98525.41;;;10.59;94.62
66547;BME280;53400;50.364;14.874;2023-06-14T02:21:58;98516.44;;;10.48;96.38
66547;BME280;53400;50.364;14.874;2023-06-14T02:24:24;98525.91;;;10.55;96.03
66547;BME280;53400;50.364;14.874;2023-06-14T02:26:50;98523.69;;;10.47;97.02
66547;BME280;53400;50.364;14.874;2023-06-14T02:29:16;98523.41;;;10.49;96.28
66547;BME280;53400;50.364;14.874;2023-06-14T02:31:44;98523.81;;;10.41;96.78
66547;BME280;53400;50.364;14.874;2023-06-14T02:34:12;98520.03;;;10.37;97.32
66547;BME280;53400;50.364;14.874;2023-06-14T02:36:38;98522.88;;;10.30;97.13
66547;BME280;53400;50.364;14.874;2023-06-14T02:39:07;98526.69;;;10.17;98.14
66547;BME280;53400;50.364;14.874;2023-06-14T02:41:35;98525.78;;;10.11;98.21
66547;BME280;53400;50.364;14.874;2023-06-14T02:44:01;98524.31;;;10.21;97.18
66547;BME280;53400;50.364;14.874;2023-06-14T02:46:27;98527.00;;;10.04;98.01
66547;BME280;53400;50.364;14.874;2023-06-14T02:48:55;98522.78;;;10.08;98.88
66547;BME280;53400;50.364;14.874;2023-06-14T02:51:22;98529.19;;;10.24;96.96
66547;BME280;53400;50.364;14.874;2023-06-14T02:53:49;98539.25;;;10.17;97.97
66547;BME280;53400;50.364;14.874;2023-06-14T02:56:18;98533.88;;;10.00;99.49
66547;BME280;53400;50.364;14.874;2023-06-14T02:58:45;98526.09;;;10.15;97.86
66547;BME280;53400;50.364;14.874;2023-06-14T03:01:22;98529.09;;;10.19;97.42
66547;BME280;53400;50.364;14.874;2023-06-14T03:03:56;98526.44;;;10.02;97.98
66547;BME280;53400;50.364;14.874;2023-06-14T03:06:22;98528.22;;;10.30;97.13
66547;BME280;53400;50.364;14.874;2023-06-14T03:08:50;98530.31;;;10.45;96.77
66547;BME280;53400;50.364;14.874;2023-06-14T03:11:17;98532.19;;;10.44;95.84
66547;BME280;53400;50.364;14.874;2023-06-14T03:13:46;98534.78;;;10.39;95.78
66547;BME280;53400;50.364;14.874;2023-06-14T03:16:13;98529.03;;;10.14;96.52
66547;BME280;53400;50.364;14.874;2023-06-14T03:18:39;98528.38;;;9.90;98.40
66547;BME280;53400;50.364;14.874;2023-06-14T03:21:08;98531.38;;;9.93;98.41
66547;BME280;53400;50.364;14.874;2023-06-14T03:23:34;98539.41;;;9.93;98.31
66547;BME280;53400;50.364;14.874;2023-06-14T03:26:01;98532.19;;;9.94;97.85
66547;BME280;53400;50.364;14.874;2023-06-14T03:28:27;98535.66;;;9.94;97.14
66547;BME280;53400;50.364;14.874;2023-06-14T03:30:54;98536.63;;;9.88;99.27
66547;BME280;53400;50.364;14.874;2023-06-14T03:33:20;98544.50;;;9.95;99.22
66547;BME280;53400;50.364;14.874;2023-06-14T03:35:47;98545.88;;;9.97;97.87
66547;BME280;53400;50.364;14.874;2023-06-14T03:38:15;98544.84;;;9.98;97.53
66547;BME280;53400;50.364;14.874;2023-06-14T03:40:42;98547.34;;;10.22;95.57
66547;BME280;53400;50.364;14.874;2023-06-14T03:43:08;98553.03;;;10.08;94.85
66547;BME280;53400;50.364;14.874;2023-06-14T03:45:34;98557.81;;;9.90;95.83
66547;BME280;53400;50.364;14.874;2023-06-14T03:48:00;98559.03;;;9.99;94.82
66547;BME280;53400;50.364;14.874;2023-06-14T03:50:28;98559.34;;;10.02;93.88
66547;BME280;53400;50.364;14.874;2023-06-14T03:52:55;98558.34;;;9.92;95.01
66547;BME280;53400;50.364;14.874;2023-06-14T03:55:23;98558.72;;;9.95;94.89
66547;BME280;53400;50.364;14.874;2023-06-14T03:57:51;98565.78;;;10.01;94.30
66547;BME280;53400;50.364;14.874;2023-06-14T04:00:18;98560.44;;;9.73;94.55
66547;BME280;53400;50.364;14.874;2023-06-14T04:02:44;98565.50;;;9.86;95.74
66547;BME280;53400;50.364;14.874;2023-06-14T04:05:12;98571.66;;;10.03;93.99
66547;BME280;53400;50.364;14.874;2023-06-14T04:07:39;98563.09;;;10.18;93.04
66547;BME280;53400;50.364;14.874;2023-06-14T04:10:11;98563.66;;;10.20;93.09
66547;BME280;53400;50.364;14.874;2023-06-14T04:12:39;98563.03;;;10.30;93.26
66547;BME280;53400;50.364;14.874;2023-06-14T04:15:06;98570.66;;;10.38;92.58
66547;BME280;53400;50.364;14.874;2023-06-14T04:17:34;98563.66;;;10.37;92.86
66547;BME280;53400;50.364;14.874;2023-06-14T04:20:01;98566.41;;;10.25;94.55
66547;BME280;53400;50.364;14.874;2023-06-14T04:22:29;98571.19;;;10.06;95.16
66547;BME280;53400;50.364;14.874;2023-06-14T04:24:56;98577.13;;;10.08;95.36
66547;BME280;53400;50.364;14.874;2023-06-14T04:27:23;98571.19;;;10.06;96.52
66547;BME280;53400;50.364;14.874;2023-06-14T04:29:52;98570.25;;;10.29;94.31
66547;BME280;53400;50.364;14.874;2023-06-14T04:32:23;98571.19;;;10.23;95.51
66547;BME280;53400;50.364;14.874;2023-06-14T04:34:52;98573.19;;;10.84;93.35
66547;BME280;53400;50.364;14.874;2023-06-14T04:37:22;98567.63;;;11.34;91.97
66547;BME280;53400;50.364;14.874;2023-06-14T04:39:55;98571.19;;;11.40;90.58
66547;BME280;53400;50.364;14.874;2023-06-14T04:42:23;98574.28;;;11.81;89.12
66547;BME280;53400;50.364;14.874;2023-06-14T04:44:53;98566.78;;;12.42;86.73
66547;BME280;53400;50.364;14.874;2023-06-14T04:47:21;98577.44;;;12.74;84.45
66547;BME280;53400;50.364;14.874;2023-06-14T04:49:47;98580.53;;;12.98;82.38
66547;BME280;53400;50.364;14.874;2023-06-14T04:52:14;98585.56;;;13.37;83.78
66547;BME280;53400;50.364;14.874;2023-06-14T04:54:41;98593.47;;;13.64;80.02
66547;BME280;53400;50.364;14.874;2023-06-14T04:57:07;98591.88;;;13.73;77.96
66547;BME280;53400;50.364;14.874;2023-06-14T04:59:34;98588.69;;;14.22;76.97
66547;BME280;53400;50.364;14.874;2023-06-14T05:02:03;98590.28;;;14.44;76.67
66547;BME280;53400;50.364;14.874;2023-06-14T05:04:31;98589.06;;;15.22;75.56
66547;BME280;53400;50.364;14.874;2023-06-14T05:06:57;98594.19;;;15.23;72.51
66547;BME280;53400;50.364;14.874;2023-06-14T05:09:24;98596.56;;;15.30;72.40
66547;BME280;53400;50.364;14.874;2023-06-14T05:11:50;98602.69;;;14.71;74.37
66547;BME280;53400;50.364;14.874;2023-06-14T05:14:17;98596.13;;;14.97;75.33
66547;BME280;53400;50.364;14.874;2023-06-14T05:16:45;98599.72;;;14.41;76.19
66547;BME280;53400;50.364;14.874;2023-06-14T05:19:13;98594.59;;;14.50;75.11
66547;BME280;53400;50.364;14.874;2023-06-14T05:21:39;98598.94;;;14.31;75.74
66547;BME280;53400;50.364;14.874;2023-06-14T05:24:06;98600.72;;;14.97;75.28
66547;BME280;53400;50.364;14.874;2023-06-14T05:26:33;98599.81;;;15.27;73.15
66547;BME280;53400;50.364;14.874;2023-06-14T05:29:00;98595.56;;;16.15;70.17
66547;BME280;53400;50.364;14.874;2023-06-14T05:31:27;98597.22;;;16.45;68.71
66547;BME280;53400;50.364;14.874;2023-06-14T05:33:54;98604.69;;;15.85;71.21
66547;BME280;53400;50.364;14.874;2023-06-14T05:36:22;98606.81;;;15.38;73.00
66547;BME280;53400;50.364;14.874;2023-06-14T05:38:49;98597.19;;;15.76;72.63
66547;BME280;53400;50.364;14.874;2023-06-14T05:41:17;98603.47;;;16.06;71.14
66547;BME280;53400;50.364;14.874;2023-06-14T05:43:44;98596.84;;;16.57;69.42
66547;BME280;53400;50.364;14.874;2023-06-14T05:46:10;98601.66;;;16.94;66.58
66547;BME280;53400;50.364;14.874;2023-06-14T05:48:36;98600.56;;;16.66;67.23
66547;BME280;53400;50.364;14.874;2023-06-14T05:51:02;98609.19;;;16.39;69.46
66547;BME280;53400;50.364;14.874;2023-06-14T05:53:30;98604.94;;;17.15;66.45
66547;BME280;53400;50.364;14.874;2023-06-14T05:55:56;98603.34;;;17.14;68.43
66547;BME280;53400;50.364;14.874;2023-06-14T05:58:22;98602.69;;;17.22;65.92
66547;BME280;53400;50.364;14.874;2023-06-14T06:00:48;98598.94;;;17.18;67.06
66547;BME280;53400;50.364;14.874;2023-06-14T06:03:14;98601.72;;;16.55;66.69
66547;BME280;53400;50.364;14.874;2023-06-14T06:05:41;98603.47;;;17.47;65.92
66547;BME280;53400;50.364;14.874;2023-06-14T06:08:07;98611.16;;;17.82;65.30
66547;BME280;53400;50.364;14.874;2023-06-14T06:10:35;98607.09;;;17.80;64.88
66547;BME280;53400;50.364;14.874;2023-06-14T06:13:01;98613.06;;;17.58;66.57
66547;BME280;53400;50.364;14.874;2023-06-14T06:15:27;98616.69;;;17.29;65.80
66547;BME280;53400;50.364;14.874;2023-06-14T06:17:53;98616.47;;;18.58;62.82
66547;BME280;53400;50.364;14.874;2023-06-14T06:20:20;98623.19;;;18.28;64.36
66547;BME280;53400;50.364;14.874;2023-06-14T06:22:47;98627.84;;;18.60;61.53
66547;BME280;53400;50.364;14.874;2023-06-14T06:25:13;98636.22;;;17.69;62.27
66547;BME280;53400;50.364;14.874;2023-06-14T06:27:42;98630.41;;;18.00;61.47
66547;BME280;53400;50.364;14.874;2023-06-14T06:30:09;98627.75;;;18.32;59.98
66547;BME280;53400;50.364;14.874;2023-06-14T06:32:35;98624.75;;;18.15;62.01
66547;BME280;53400;50.364;14.874;2023-06-14T06:35:01;98633.41;;;18.50;61.53
66547;BME280;53400;50.364;14.874;2023-06-14T06:37:28;98635.56;;;18.86;60.49
66547;BME280;53400;50.364;14.874;2023-06-14T06:39:54;98623.38;;;18.18;58.40
66547;BME280;53400;50.364;14.874;2023-06-14T06:42:21;98637.31;;;18.44;61.11
66547;BME280;53400;50.364;14.874;2023-06-14T06:44:48;98636.47;;;18.10;57.31
66547;BME280;53400;50.364;14.874;2023-06-14T06:47:15;98633.41;;;17.55;58.62
66547;BME280;53400;50.364;14.874;2023-06-14T06:49:41;98631.91;;;18.44;57.88
66547;BME280;53400;50.364;14.874;2023-06-14T06:52:08;98634.13;;;18.74;57.09
66547;BME280;53400;50.364;14.874;2023-06-14T06:54:34;98639.97;;;18.82;55.97
66547;BME280;53400;50.364;14.874;2023-06-14T06:57:00;98629.44;;;18.94;56.46
66547;BME280;53400;50.364;14.874;2023-06-14T06:59:30;98635.41;;;19.37;53.69
66547;BME280;53400;50.364;14.874;2023-06-14T07:01:58;98640.63;;;19.34;53.83
66547;BME280;53400;50.364;14.874;2023-06-14T07:04:24;98644.66;;;19.22;54.73
66547;BME280;53400;50.364;14.874;2023-06-14T07:06:50;98651.16;;;18.61;54.63
66547;BME280;53400;50.364;14.874;2023-06-14T07:09:17;98651.59;;;19.42;53.53
66547;BME280;53400;50.364;14.874;2023-06-14T07:11:44;98654.41;;;19.79;52.58
66547;BME280;53400;50.364;14.874;2023-06-14T07:14:11;98661.94;;;19.40;52.71
66547;BME280;53400;50.364;14.874;2023-06-14T07:16:37;98660.97;;;20.14;51.85
66547;BME280;53400;50.364;14.874;2023-06-14T07:19:05;98658.75;;;20.52;51.63
66547;BME280;53400;50.364;14.874;2023-06-14T07:21:31;98676.94;;;19.52;53.61
66547;BME280;53400;50.364;14.874;2023-06-14T07:23:57;98657.94;;;18.07;57.11
66547;BME280;53400;50.364;14.874;2023-06-14T07:26:23;98667.09;;;19.14;53.40
66547;BME280;53400;50.364;14.874;2023-06-14T07:28:49;98667.59;;;19.85;53.53
66547;BME280;53400;50.364;14.874;2023-06-14T07:31:16;98668.06;;;20.82;51.91
66547;BME280;53400;50.364;14.874;2023-06-14T07:33:42;98664.94;;;20.98;50.65
66547;BME280;53400;50.364;14.874;2023-06-14T07:36:12;98671.91;;;19.31;53.54
66547;BME280;53400;50.364;14.874;2023-06-14T07:38:38;98670.72;;;20.51;52.77
66547;BME280;53400;50.364;14.874;2023-06-14T07:41:07;98674.22;;;19.24;55.37
66547;BME280;53400;50.364;14.874;2023-06-14T07:43:33;98675.59;;;20.04;54.74
66547;BME280;53400;50.364;14.874;2023-06-14T07:46:03;98676.09;;;20.43;51.18
66547;BME280;53400;50.364;14.874;2023-06-14T07:48:29;98673.38;;;18.63;55.04
66547;BME280;53400;50.364;14.874;2023-06-14T07:50:56;98663.66;;;18.05;56.35
66547;BME280;53400;50.364;14.874;2023-06-14T07:53:24;98673.34;;;17.93;56.47
66547;BME280;53400;50.364;14.874;2023-06-14T07:55:52;98676.81;;;19.15;54.83
66547;BME280;53400;50.364;14.874;2023-06-14T07:58:18;98676.44;;;19.49;54.84
66547;BME280;53400;50.364;14.874;2023-06-14T08:00:45;98677.75;;;19.93;54.45
66547;BME280;53400;50.364;14.874;2023-06-14T08:03:11;98682.44;;;20.38;51.47
66547;BME280;53400;50.364;14.874;2023-06-14T08:05:38;98684.28;;;19.92;50.51
66547;BME280;53400;50.364;14.874;2023-06-14T08:08:04;98680.03;;;19.03;53.15
66547;BME280;53400;50.364;14.874;2023-06-14T08:10:33;98682.28;;;19.84;51.24
66547;BME280;53400;50.364;14.874;2023-06-14T08:12:59;98679.78;;;20.60;51.25
66547;BME280;53400;50.364;14.874;2023-06-14T08:15:25;98685.38;;;19.50;52.03
66547;BME280;53400;50.364;14.874;2023-06-14T08:17:51;98692.50;;;19.60;51.70
66547;BME280;53400;50.364;14.874;2023-06-14T08:20:18;98686.94;;;18.63;54.60
66547;BME280;53400;50.364;14.874;2023-06-14T08:22:44;98688.91;;;19.51;53.68
66547;BME280;53400;50.364;14.874;2023-06-14T08:25:12;98681.66;;;20.24;50.99
66547;BME280;53400;50.364;14.874;2023-06-14T08:27:40;98675.31;;;19.92;51.98
66547;BME280;53400;50.364;14.874;2023-06-14T08:30:08;98686.50;;;19.63;50.44
66547;BME280;53400;50.364;14.874;2023-06-14T08:32:35;98678.19;;;20.46;51.55
66547;BME280;53400;50.364;14.874;2023-06-14T08:35:03;98687.63;;;20.26;49.94
66547;BME280;53400;50.364;14.874;2023-06-14T08:37:30;98695.53;;;19.31;55.11
66547;BME280;53400;50.364;14.874;2023-06-14T08:39:57;98683.09;;;19.85;51.98
66547;BME280;53400;50.364;14.874;2023-06-14T08:42:24;98680.16;;;20.99;50.71
66547;BME280;53400;50.364;14.874;2023-06-14T08:44:53;98682.25;;;20.71;51.14
66547;BME280;53400;50.364;14.874;2023-06-14T08:47:19;98674.44;;;20.78;50.17
66547;BME280;53400;50.364;14.874;2023-06-14T08:49:47;98674.81;;;21.16;49.65
66547;BME280;53400;50.364;14.874;2023-06-14T08:52:15;98670.09;;;20.77;48.97
66547;BME280;53400;50.364;14.874;2023-06-14T08:54:46;98675.03;;;20.97;49.88
66547;BME280;53400;50.364;14.874;2023-06-14T08:57:14;98682.25;;;21.64;47.58
66547;BME280;53400;50.364;14.874;2023-06-14T08:59:46;98679.97;;;22.41;47.05
66547;BME280;53400;50.364;14.874;2023-06-14T09:02:14;98676.25;;;22.63;46.81
66547;BME280;53400;50.364;14.874;2023-06-14T09:04:44;98672.88;;;22.66;45.89
66547;BME280;53400;50.364;14.874;2023-06-14T09:07:10;98681.25;;;22.43;45.77
66547;BME280;53400;50.364;14.874;2023-06-14T09:09:38;98677.53;;;22.48;45.02
66547;BME280;53400;50.364;14.874;2023-06-14T09:12:07;98673.84;;;20.45;47.69
66547;BME280;53400;50.364;14.874;2023-06-14T09:14:35;98677.66;;;21.11;48.55
66547;BME280;53400;50.364;14.874;2023-06-14T09:17:05;98675.28;;;20.87;48.07
66547;BME280;53400;50.364;14.874;2023-06-14T09:19:33;98683.75;;;22.05;45.53
66547;BME280;53400;50.364;14.874;2023-06-14T09:22:01;98680.31;;;21.25;46.52
66547;BME280;53400;50.364;14.874;2023-06-14T09:24:27;98688.13;;;20.50;45.24
66547;BME280;53400;50.364;14.874;2023-06-14T09:26:55;98686.19;;;20.06;47.26
66547;BME280;53400;50.364;14.874;2023-06-14T09:29:21;98693.50;;;20.05;46.61
66547;BME280;53400;50.364;14.874;2023-06-14T09:31:48;98689.88;;;19.13;48.46
66547;BME280;53400;50.364;14.874;2023-06-14T09:34:16;98686.84;;;20.48;48.48
66547;BME280;53400;50.364;14.874;2023-06-14T09:36:45;98680.47;;;21.28;45.69
66547;BME280;53400;50.364;14.874;2023-06-14T09:39:17;98685.25;;;22.37;46.23
66547;BME280;53400;50.364;14.874;2023-06-14T09:41:44;98680.75;;;22.50;46.87
66547;BME280;53400;50.364;14.874;2023-06-14T09:44:10;98685.22;;;22.98;49.10
66547;BME280;53400;50.364;14.874;2023-06-14T09:46:38;98681.44;;;23.20;48.05
66547;BME280;53400;50.364;14.874;2023-06-14T09:49:05;98684.50;;;23.19;47.58
66547;BME280;53400;50.364;14.874;2023-06-14T09:51:32;98675.19;;;23.20;45.66
66547;BME280;53400;50.364;14.874;2023-06-14T09:54:01;98678.97;;;22.72;47.28
66547;BME280;53400;50.364;14.874;2023-06-14T09:56:32;98672.38;;;22.64;46.83
66547;BME280;53400;50.364;14.874;2023-06-14T09:59:03;98676.47;;;23.22;46.29
66547;BME280;53400;50.364;14.874;2023-06-14T10:01:31;98674.53;;;23.23;46.82
66547;BME280;53400;50.364;14.874;2023-06-14T10:04:03;98677.03;;;22.81;45.42
66547;BME280;53400;50.364;14.874;2023-06-14T10:06:30;98674.81;;;22.65;48.93
66547;BME280;53400;50.364;14.874;2023-06-14T10:08:58;98676.59;;;22.53;50.79
66547;BME280;53400;50.364;14.874;2023-06-14T10:11:27;98672.13;;;23.12;48.00
66547;BME280;53400;50.364;14.874;2023-06-14T10:13:54;98671.41;;;23.80;46.63
66547;BME280;53400;50.364;14.874;2023-06-14T10:16:25;98670.47;;;23.97;45.65
66547;BME280;53400;50.364;14.874;2023-06-14T10:19:01;98666.69;;;23.89;43.57
66547;BME280;53400;50.364;14.874;2023-06-14T10:21:33;98661.50;;;22.55;46.13
66547;BME280;53400;50.364;14.874;2023-06-14T10:24:05;98659.38;;;22.70;46.14
66547;BME280;53400;50.364;14.874;2023-06-14T10:26:34;98663.22;;;22.95;45.85
66547;BME280;53400;50.364;14.874;2023-06-14T10:29:01;98659.72;;;22.68;44.41
66547;BME280;53400;50.364;14.874;2023-06-14T10:31:41;98664.69;;;23.30;44.77
66547;BME280;53400;50.364;14.874;2023-06-14T10:34:11;98666.69;;;23.89;44.30
66547;BME280;53400;50.364;14.874;2023-06-14T10:36:41;98664.75;;;24.53;44.61
66547;BME280;53400;50.364;14.874;2023-06-14T10:39:09;98665.59;;;24.02;41.30
66547;BME280;53400;50.364;14.874;2023-06-14T10:41:39;98667.28;;;21.13;47.10
66547;BME280;53400;50.364;14.874;2023-06-14T10:44:38;98663.34;;;21.28;47.21
66547;BME280;53400;50.364;14.874;2023-06-14T10:47:07;98656.03;;;22.20;45.77
66547;BME280;53400;50.364;14.874;2023-06-14T10:49:39;98660.44;;;21.24;47.94
66547;BME280;53400;50.364;14.874;2023-06-14T10:52:10;98656.91;;;20.93;47.65
66547;BME280;53400;50.364;14.874;2023-06-14T10:55:03;98665.03;;;21.46;46.53
66547;BME280;53400;50.364;14.874;2023-06-14T10:57:34;98674.69;;;21.21;45.97
66547;BME280;53400;50.364;14.874;2023-06-14T11:00:03;98672.56;;;21.49;48.21
66547;BME280;53400;50.364;14.874;2023-06-14T11:03:15;98672.28;;;21.60;47.85
66547;BME280;53400;50.364;14.874;2023-06-14T11:05:50;98667.50;;;20.72;49.48
66547;BME280;53400;50.364;14.874;2023-06-14T11:08:59;98661.28;;;21.02;47.74
66547;BME280;53400;50.364;14.874;2023-06-14T11:11:31;98663.75;;;20.59;48.38
66547;BME280;53400;50.364;14.874;2023-06-14T11:14:01;98665.44;;;20.32;48.59
66547;BME280;53400;50.364;14.874;2023-06-14T11:16:28;98661.81;;;20.01;50.60
66547;BME280;53400;50.364;14.874;2023-06-14T11:18:55;98670.19;;;19.21;52.51
66547;BME280;53400;50.364;14.874;2023-06-14T11:21:21;98664.28;;;18.54;55.35
66547;BME280;53400;50.364;14.874;2023-06-14T11:23:50;98676.34;;;18.80;54.27
66547;BME280;53400;50.364;14.874;2023-06-14T11:26:24;98672.97;;;18.70;56.04
66547;BME280;53400;50.364;14.874;2023-06-14T11:28:55;98672.44;;;18.54;55.97
66547;BME280;53400;50.364;14.874;2023-06-14T11:31:23;98663.22;;;18.17;57.51
66547;BME280;53400;50.364;14.874;2023-06-14T11:33:50;98667.91;;;18.30;57.09
66547;BME280;53400;50.364;14.874;2023-06-14T11:36:16;98665.97;;;18.50;57.51
66547;BME280;53400;50.364;14.874;2023-06-14T11:38:43;98669.06;;;18.43;57.48
66547;BME280;53400;50.364;14.874;2023-06-14T11:41:09;98668.19;;;18.80;56.83
66547;BME280;53400;50.364;14.874;2023-06-14T11:43:36;98664.38;;;18.30;56.66
66547;BME280;53400;50.364;14.874;2023-06-14T11:46:03;98663.06;;;18.27;54.82
66547;BME280;53400;50.364;14.874;2023-06-14T11:48:41;98659.09;;;18.20;56.70
66547;BME280;53400;50.364;14.874;2023-06-14T11:51:07;98667.19;;;18.76;54.65
66547;BME280;53400;50.364;14.874;2023-06-14T11:53:34;98666.31;;;18.62;53.82
66547;BME280;53400;50.364;14.874;2023-06-14T11:56:01;98669.34;;;18.23;54.47
66547;BME280;53400;50.364;14.874;2023-06-14T11:58:29;98669.06;;;19.09;53.94
66547;BME280;53400;50.364;14.874;2023-06-14T12:00:55;98667.09;;;19.14;53.46
66547;BME280;53400;50.364;14.874;2023-06-14T12:03:26;98665.03;;;18.22;55.72
66547;BME280;53400;50.364;14.874;2023-06-14T12:06:04;98667.00;;;18.73;54.18
66547;BME280;53400;50.364;14.874;2023-06-14T12:08:34;98661.13;;;18.66;51.67
66547;BME280;53400;50.364;14.874;2023-06-14T12:11:10;98662.28;;;18.08;53.26
66547;BME280;53400;50.364;14.874;2023-06-14T12:13:38;98659.66;;;18.73;54.17
66547;BME280;53400;50.364;14.874;2023-06-14T12:16:06;98664.53;;;18.71;52.29
66547;BME280;53400;50.364;14.874;2023-06-14T12:18:34;98660.63;;;19.10;51.43
66547;BME280;53400;50.364;14.874;2023-06-14T12:21:00;98661.88;;;18.85;51.99
66547;BME280;53400;50.364;14.874;2023-06-14T12:23:44;98659.63;;;19.06;51.72
66547;BME280;53400;50.364;14.874;2023-06-14T12:26:13;98656.66;;;18.89;51.27
66547;BME280;53400;50.364;14.874;2023-06-14T12:28:40;98661.09;;;18.85;51.69
66547;BME280;53400;50.364;14.874;2023-06-14T12:31:07;98660.97;;;18.76;52.48
66547;BME280;53400;50.364;14.874;2023-06-14T12:33:34;98662.06;;;19.21;51.96
66547;BME280;53400;50.364;14.874;2023-06-14T12:36:03;98656.50;;;18.99;51.42
66547;BME280;53400;50.364;14.874;2023-06-14T12:38:29;98658.13;;;19.28;53.20
66547;BME280;53400;50.364;14.874;2023-06-14T12:40:56;98662.66;;;19.46;51.70
66547;BME280;53400;50.364;14.874;2023-06-14T12:43:24;98654.97;;;18.93;52.65
66547;BME280;53400;50.364;14.874;2023-06-14T12:45:50;98652.72;;;18.48;53.93
66547;BME280;53400;50.364;14.874;2023-06-14T12:48:16;98647.09;;;18.77;53.28
66547;BME280;53400;50.364;14.874;2023-06-14T12:50:42;98649.28;;;19.08;52.99
66547;BME280;53400;50.364;14.874;2023-06-14T12:53:08;98648.25;;;18.71;51.81
66547;BME280;53400;50.364;14.874;2023-06-14T12:55:34;98638.31;;;18.67;53.07